createdAt,value
2017-09-28T00:01:01.749Z,22.48
2017-09-28T00:03:07.848Z,22.29
2017-09-28T00:05:14.054Z,22.33
2017-09-28T00:07:20.275Z,22.37
2017-09-28T00:09:28.940Z,22.51
2017-09-28T00:11:36.546Z,22.48
2017-09-28T00:13:42.669Z,22.44
2017-09-28T00:15:49.551Z,22.51
2017-09-28T00:17:57.853Z,22.41
2017-09-28T00:20:05.631Z,22.64
2017-09-28T00:22:12.212Z,22.74
2017-09-28T00:24:19.138Z,22.81
2017-09-28T00:26:25.986Z,22.70
2017-09-28T00:28:34.045Z,22.79
2017-09-28T00:30:41.600Z,22.73
2017-09-28T00:32:47.530Z,22.79
2017-09-28T00:34:55.465Z,22.82
2017-09-28T00:37:01.832Z,22.56
2017-09-28T00:39:08.227Z,22.13
2017-09-28T00:41:14.460Z,22.17
2017-09-28T00:43:21.301Z,22.49
2017-09-28T00:45:31.695Z,22.56
2017-09-28T00:47:44.605Z,22.18
2017-09-28T00:49:51.019Z,22.16
2017-09-28T00:51:59.075Z,22.09
2017-09-28T00:54:05.347Z,22.26
2017-09-28T00:56:11.620Z,22.57
2017-09-28T00:58:18.209Z,22.64
2017-09-28T01:00:24.197Z,22.40
2017-09-28T01:02:31.239Z,22.50
2017-09-28T01:04:37.875Z,22.50
2017-09-28T01:06:44.147Z,22.32
2017-09-28T01:08:50.286Z,22.25
2017-09-28T01:10:58.259Z,22.22
2017-09-28T01:13:04.276Z,22.22
2017-09-28T01:15:11.185Z,22.28
2017-09-28T01:17:18.616Z,22.37
2017-09-28T01:19:26.961Z,22.20
2017-09-28T01:21:33.883Z,22.36
2017-09-28T01:23:43.475Z,22.59
2017-09-28T01:25:49.799Z,22.77
2017-09-28T01:27:58.075Z,22.84
2017-09-28T01:30:04.938Z,22.78
2017-09-28T01:32:10.888Z,22.56
2017-09-28T01:34:17.493Z,22.56
2017-09-28T01:36:24.028Z,22.66
2017-09-28T01:38:30.483Z,22.59
2017-09-28T01:40:36.823Z,22.37
2017-09-28T01:42:42.984Z,22.25
2017-09-28T01:44:49.210Z,22.19
2017-09-28T01:46:57.209Z,22.13
2017-09-28T01:49:03.422Z,22.29
2017-09-28T01:51:09.515Z,22.30
2017-09-28T01:53:18.504Z,22.27
2017-09-28T01:55:26.964Z,22.32
2017-09-28T01:57:35.091Z,22.34
2017-09-28T01:59:44.018Z,22.34
2017-09-28T02:01:52.914Z,22.20
2017-09-28T02:04:01.698Z,22.34
2017-09-28T02:06:07.989Z,22.24
2017-09-28T02:08:14.702Z,22.24
2017-09-28T02:10:21.309Z,22.05
2017-09-28T02:12:28.464Z,21.94
2017-09-28T02:14:36.492Z,21.86
2017-09-28T02:16:42.136Z,21.89
2017-09-28T02:18:48.241Z,21.95
2017-09-28T02:20:55.931Z,22.02
2017-09-28T02:23:02.383Z,22.15
2017-09-28T02:25:09.118Z,22.09
2017-09-28T02:27:14.920Z,22.08
2017-09-28T02:29:20.891Z,22.07
2017-09-28T02:31:27.479Z,22.04
2017-09-28T02:33:34.596Z,21.96
2017-09-28T02:35:42.639Z,22.06
2017-09-28T02:37:49.065Z,22.10
2017-09-28T02:39:55.296Z,21.95
2017-09-28T02:42:02.254Z,21.70
2017-09-28T02:44:08.949Z,21.74
2017-09-28T02:46:14.796Z,21.92
2017-09-28T02:48:20.585Z,21.69
2017-09-28T02:50:25.928Z,21.78
2017-09-28T02:52:32.933Z,21.63
2017-09-28T02:54:38.663Z,21.70
2017-09-28T02:56:44.472Z,21.66
2017-09-28T02:58:50.110Z,21.76
2017-09-28T03:00:57.982Z,21.86
2017-09-28T03:03:03.438Z,21.67
2017-09-28T03:05:09.885Z,21.83
2017-09-28T03:07:15.678Z,22.00
2017-09-28T03:09:22.040Z,21.95
2017-09-28T03:11:30.223Z,21.73
2017-09-28T03:13:38.044Z,21.79
2017-09-28T03:15:45.472Z,21.83
2017-09-28T03:17:51.933Z,21.74
2017-09-28T03:19:59.841Z,21.66
2017-09-28T03:22:05.744Z,21.66
2017-09-28T03:24:12.576Z,21.73
2017-09-28T03:26:19.007Z,21.92
2017-09-28T03:28:26.148Z,21.79
2017-09-28T03:30:32.989Z,21.56
2017-09-28T03:32:43.165Z,21.40
2017-09-28T03:34:49.511Z,21.51
2017-09-28T03:36:57.098Z,21.75
2017-09-28T03:39:03.213Z,21.77
2017-09-28T03:41:10.548Z,21.99
2017-09-28T03:43:16.597Z,22.15
2017-09-28T03:45:22.513Z,22.25
2017-09-28T03:47:30.544Z,22.44
2017-09-28T03:49:37.226Z,22.41
2017-09-28T03:51:44.931Z,22.40
2017-09-28T03:53:50.984Z,22.54
2017-09-28T03:55:58.537Z,22.69
2017-09-28T03:58:04.586Z,22.63
2017-09-28T04:00:11.010Z,22.50
2017-09-28T04:02:17.315Z,21.97
2017-09-28T04:04:24.078Z,21.81
2017-09-28T04:06:31.221Z,22.11
2017-09-28T04:08:39.201Z,22.18
2017-09-28T04:11:22.813Z,22.28
2017-09-28T04:13:29.401Z,22.05
2017-09-28T04:15:34.812Z,22.06
2017-09-28T04:17:40.034Z,22.04
2017-09-28T04:19:49.712Z,21.68
2017-09-28T04:22:01.006Z,21.51
2017-09-28T04:24:06.475Z,21.40
2017-09-28T04:26:12.911Z,21.55
2017-09-28T04:28:23.033Z,21.77
2017-09-28T04:30:29.113Z,21.96
2017-09-28T04:32:40.299Z,21.90
2017-09-28T04:34:48.481Z,21.70
2017-09-28T04:37:06.173Z,21.76
2017-09-28T04:39:11.740Z,21.56
2017-09-28T04:41:18.167Z,21.61
2017-09-28T04:43:25.786Z,21.44
2017-09-28T04:45:34.027Z,21.42
2017-09-28T04:47:42.009Z,21.34
2017-09-28T04:49:48.179Z,21.48
2017-09-28T04:51:57.543Z,21.22
2017-09-28T04:54:06.702Z,21.50
2017-09-28T04:56:16.198Z,21.68
2017-09-28T04:58:22.521Z,21.73
2017-09-28T05:00:29.262Z,21.69
2017-09-28T05:02:50.121Z,21.57
2017-09-28T05:04:58.075Z,21.38
2017-09-28T05:07:09.597Z,21.43
2017-09-28T05:11:34.409Z,21.54
2017-09-28T05:13:41.408Z,21.49
2017-09-28T05:15:47.906Z,21.60
2017-09-28T05:17:56.419Z,21.69
2017-09-28T05:20:07.125Z,21.83
2017-09-28T05:22:15.171Z,21.20
2017-09-28T05:24:22.720Z,20.86
2017-09-28T05:26:30.073Z,20.71
2017-09-28T05:28:39.304Z,20.92
2017-09-28T05:30:46.489Z,21.22
2017-09-28T05:33:03.431Z,20.98
2017-09-28T05:35:09.718Z,20.89
2017-09-28T05:37:27.715Z,21.00
2017-09-28T05:39:35.657Z,21.44
2017-09-28T05:41:44.549Z,21.30
2017-09-28T05:44:02.504Z,21.44
2017-09-28T05:46:19.119Z,21.59
2017-09-28T05:48:30.999Z,21.56
2017-09-28T05:50:43.999Z,21.56
2017-09-28T05:52:55.067Z,21.56
2017-09-28T05:55:05.574Z,21.55
2017-09-28T05:57:16.767Z,21.68
2017-09-28T05:59:32.304Z,21.56
2017-09-28T06:01:50.863Z,21.57
2017-09-28T06:04:02.535Z,21.50
2017-09-28T06:06:23.280Z,21.29
2017-09-28T06:10:56.988Z,21.04
2017-09-28T06:13:03.068Z,21.02
2017-09-28T06:15:13.894Z,21.15
2017-09-28T06:17:26.804Z,20.98
2017-09-28T06:19:35.325Z,20.90
2017-09-28T06:21:50.347Z,20.83
2017-09-28T06:26:11.126Z,21.27
2017-09-28T06:28:27.137Z,21.32
2017-09-28T06:30:33.733Z,21.40
2017-09-28T06:32:43.135Z,21.41
2017-09-28T06:34:51.131Z,21.47
2017-09-28T06:36:56.735Z,21.43
2017-09-28T06:39:08.591Z,21.43
2017-09-28T06:41:14.657Z,21.60
2017-09-28T06:43:20.962Z,21.43
2017-09-28T06:45:30.331Z,21.42
2017-09-28T06:47:47.713Z,21.53
2017-09-28T06:49:55.852Z,21.72
2017-09-28T06:52:07.745Z,21.96
2017-09-28T06:54:17.264Z,21.88
2017-09-28T06:56:23.497Z,21.83
2017-09-28T06:58:29.633Z,22.08
2017-09-28T07:00:40.706Z,21.92
2017-09-28T07:02:53.610Z,22.09
2017-09-28T07:05:05.403Z,22.22
2017-09-28T07:07:17.432Z,22.30
2017-09-28T07:09:26.397Z,22.04
2017-09-28T07:11:43.261Z,21.86
2017-09-28T07:13:57.126Z,21.65
2017-09-28T07:16:07.847Z,21.64
2017-09-28T07:18:18.595Z,21.56
2017-09-28T07:20:27.545Z,21.40
2017-09-28T07:22:36.686Z,21.46
2017-09-28T07:27:03.964Z,21.47
2017-09-28T07:29:10.358Z,21.55
2017-09-28T07:31:19.123Z,21.59
2017-09-28T07:33:25.851Z,21.46
2017-09-28T07:35:34.172Z,21.52
2017-09-28T07:40:02.183Z,22.19
2017-09-28T07:42:12.396Z,21.97
2017-09-28T07:44:30.718Z,22.24
2017-09-28T07:46:49.680Z,22.07
2017-09-28T07:49:02.165Z,21.91
2017-09-28T07:51:28.048Z,21.94
2017-09-28T07:53:47.108Z,21.98
2017-09-28T07:55:53.844Z,22.03
2017-09-28T07:58:13.651Z,22.12
2017-09-28T08:00:46.856Z,22.32
2017-09-28T08:03:07.301Z,22.17
2017-09-28T08:05:17.687Z,22.48
2017-09-28T08:09:49.097Z,22.06
2017-09-28T08:11:58.393Z,22.29
2017-09-28T08:22:10.987Z,22.43
2017-09-28T08:24:28.640Z,22.84
2017-09-28T08:26:46.881Z,22.58
2017-09-28T08:29:19.975Z,22.94
2017-09-28T08:34:24.991Z,22.68
2017-09-28T08:36:41.740Z,22.42
2017-09-28T08:41:05.930Z,23.11
2017-09-28T08:43:40.919Z,23.05
2017-09-28T08:45:57.854Z,23.32
2017-09-28T08:48:16.414Z,23.55
2017-09-28T08:50:42.822Z,23.64
2017-09-28T08:53:08.909Z,23.45
2017-09-28T08:55:29.161Z,23.65
2017-09-28T09:00:22.925Z,23.35
2017-09-28T09:02:34.798Z,23.63
2017-09-28T09:04:52.418Z,23.24
2017-09-28T09:07:18.010Z,23.06
2017-09-28T09:09:44.693Z,22.83
2017-09-28T09:11:55.705Z,23.50
2017-09-28T09:14:20.314Z,23.65
2017-09-28T09:16:36.970Z,23.11
2017-09-28T09:18:44.008Z,22.85
2017-09-28T09:21:02.547Z,22.81
2017-09-28T09:23:31.671Z,23.62
2017-09-28T09:26:19.735Z,23.28
2017-09-28T09:28:43.571Z,23.23
2017-09-28T09:30:52.440Z,23.23
2017-09-28T09:33:23.471Z,23.35
2017-09-28T09:35:44.187Z,23.68
2017-09-28T09:37:56.486Z,23.09
2017-09-28T09:40:28.039Z,23.18
2017-09-28T09:48:22.093Z,23.14
2017-09-28T09:53:02.123Z,23.17
2017-09-28T09:55:30.799Z,23.00
2017-09-28T09:57:59.828Z,23.17
2017-09-28T10:05:17.056Z,22.97
2017-09-28T10:08:24.671Z,23.19
2017-09-28T10:13:49.086Z,23.31
2017-09-28T10:18:37.716Z,23.56
2017-09-28T10:21:06.767Z,23.71
2017-09-28T10:26:08.742Z,23.88
2017-09-28T10:28:26.599Z,23.84
2017-09-28T10:31:01.044Z,23.86
2017-09-28T10:33:28.105Z,24.00
2017-09-28T10:38:11.862Z,24.17
2017-09-28T10:40:26.213Z,24.11
2017-09-28T10:42:41.612Z,24.17
2017-09-28T10:45:07.493Z,24.17
2017-09-28T10:49:45.043Z,24.07
2017-09-28T10:51:55.956Z,23.94
2017-09-28T10:54:04.227Z,23.94
2017-09-28T10:56:20.777Z,24.05
2017-09-28T10:58:39.330Z,23.97
2017-09-28T11:00:50.349Z,24.08
2017-09-28T11:03:00.098Z,23.94
2017-09-28T11:05:16.094Z,24.01
2017-09-28T11:07:23.756Z,24.12
2017-09-28T11:09:30.149Z,24.16
2017-09-28T11:11:43.587Z,24.15
2017-09-28T11:13:52.903Z,24.02
2017-09-28T11:16:00.006Z,24.00
2017-09-28T11:18:09.677Z,23.98
2017-09-28T11:20:19.554Z,24.25
2017-09-28T11:22:32.603Z,24.03
2017-09-28T11:24:39.765Z,23.95
2017-09-28T11:26:52.659Z,24.24
2017-09-28T11:29:01.498Z,24.42
2017-09-28T11:31:08.335Z,24.46
2017-09-28T11:33:14.259Z,24.49
2017-09-28T11:35:23.873Z,24.42
2017-09-28T11:37:32.071Z,24.56
2017-09-28T11:39:40.746Z,24.54
2017-09-28T11:41:47.467Z,24.49
2017-09-28T11:43:55.981Z,24.36
2017-09-28T11:46:08.661Z,24.28
2017-09-28T11:48:18.137Z,24.16
2017-09-28T11:50:29.456Z,24.29
2017-09-28T11:52:42.258Z,24.27
2017-09-28T11:54:50.882Z,24.27
2017-09-28T11:57:00.355Z,24.19
2017-09-28T11:59:19.976Z,24.32
2017-09-28T12:01:40.014Z,24.30
2017-09-28T12:03:57.354Z,24.42
2017-09-28T12:06:14.669Z,24.38
2017-09-28T12:08:33.096Z,24.41
2017-09-28T12:10:42.100Z,24.42
2017-09-28T12:12:49.504Z,24.51
2017-09-28T12:14:56.931Z,24.70
2017-09-28T12:17:05.326Z,24.70
2017-09-28T12:19:11.649Z,24.80
2017-09-28T12:21:20.569Z,24.73
2017-09-28T12:23:31.194Z,24.76
2017-09-28T12:25:40.023Z,24.82
2017-09-28T12:27:46.148Z,24.81
2017-09-28T12:30:02.555Z,25.08
2017-09-28T12:32:11.183Z,25.18
2017-09-28T12:34:22.908Z,25.30
2017-09-28T12:38:44.680Z,25.10
2017-09-28T12:43:11.464Z,25.85
2017-09-28T12:45:25.108Z,25.61
2017-09-28T12:47:32.301Z,25.53
2017-09-28T12:51:57.214Z,25.60
2017-09-28T12:54:09.161Z,25.27
2017-09-28T12:56:17.963Z,25.46
2017-09-28T12:58:25.796Z,25.52
2017-09-28T13:00:35.697Z,25.30
2017-09-28T13:02:44.797Z,25.74
2017-09-28T13:04:53.455Z,25.69
2017-09-28T13:07:05.456Z,25.42
2017-09-28T13:09:16.292Z,25.25
2017-09-28T13:11:24.586Z,25.20
2017-09-28T13:13:41.949Z,25.14
2017-09-28T13:19:09.874Z,25.20
2017-09-28T13:21:20.361Z,25.02
2017-09-28T14:06:21.095Z,25.00
2017-09-28T14:08:37.920Z,25.03
2017-09-28T14:13:09.261Z,25.13
2017-09-28T14:15:21.435Z,25.08
2017-09-28T14:17:29.577Z,24.99
2017-09-28T14:19:39.589Z,24.96
2017-09-28T14:21:53.849Z,24.93
2017-09-28T14:24:09.791Z,24.94
2017-09-28T14:26:20.553Z,25.14
2017-09-28T14:28:27.822Z,25.22
2017-09-28T14:30:37.068Z,25.18
2017-09-28T14:32:44.359Z,25.19
2017-09-28T14:34:52.127Z,25.25
2017-09-28T14:37:00.521Z,25.25
2017-09-28T14:39:09.310Z,25.44
2017-09-28T14:41:15.171Z,25.59
2017-09-28T14:43:22.443Z,25.54
2017-09-28T14:45:29.202Z,25.55
2017-09-28T14:47:36.392Z,25.73
2017-09-28T14:49:44.180Z,25.82
2017-09-28T14:51:50.508Z,25.57
2017-09-28T14:53:57.890Z,25.51
2017-09-28T14:56:09.635Z,25.70
2017-09-28T14:58:23.944Z,25.62
2017-09-28T15:00:35.273Z,25.63
2017-09-28T15:02:44.821Z,25.66
2017-09-28T15:04:54.255Z,25.72
2017-09-28T15:07:08.255Z,25.66
2017-09-28T15:09:17.397Z,25.76
2017-09-28T15:11:28.622Z,25.83
2017-09-28T15:16:09.362Z,25.86
2017-09-28T15:18:16.196Z,26.05
2017-09-28T15:20:43.653Z,25.95
2017-09-28T15:23:08.245Z,26.00
2017-09-28T15:25:24.173Z,25.80
2017-09-28T15:27:52.057Z,26.00
2017-09-28T15:30:09.473Z,25.87
2017-09-28T15:32:28.491Z,25.79
2017-09-28T15:34:50.883Z,25.94
2017-09-28T15:37:17.180Z,25.89
2017-09-28T15:39:46.795Z,25.87
2017-09-28T15:42:18.335Z,26.00
2017-09-28T15:44:30.716Z,25.90
2017-09-28T15:49:37.426Z,25.99
2017-09-28T15:52:00.788Z,25.90
2017-09-28T15:54:17.235Z,26.00
2017-09-28T15:56:40.792Z,25.97
2017-09-28T16:01:22.131Z,25.88
2017-09-28T16:03:35.519Z,25.78
2017-09-28T16:05:49.510Z,25.96
2017-09-28T16:08:03.310Z,25.84
2017-09-28T16:10:19.710Z,26.14
2017-09-28T16:12:31.438Z,25.78
2017-09-28T16:14:49.236Z,25.96
2017-09-28T16:17:16.008Z,25.90
2017-09-28T16:21:53.131Z,25.84
2017-09-28T16:24:14.854Z,25.59
2017-09-28T16:26:35.908Z,25.81
2017-09-28T16:28:49.006Z,25.81
2017-09-28T16:31:09.779Z,25.84
2017-09-28T16:33:26.225Z,25.81
2017-09-28T16:38:06.511Z,25.52
2017-09-28T16:46:48.430Z,25.38
2017-09-28T16:49:00.815Z,25.03
2017-09-28T16:51:09.132Z,24.87
2017-09-28T16:53:15.931Z,25.00
2017-09-28T16:55:25.298Z,24.92
2017-09-28T16:57:32.733Z,24.68
2017-09-28T16:59:44.394Z,24.57
2017-09-28T17:01:54.408Z,24.47
2017-09-28T17:04:03.009Z,24.41
2017-09-28T17:06:20.498Z,24.39
2017-09-28T17:08:32.702Z,24.33
2017-09-28T17:10:39.852Z,24.30
2017-09-28T17:12:48.227Z,24.18
2017-09-28T17:14:58.702Z,24.19
2017-09-28T17:17:10.778Z,24.17
2017-09-28T17:19:20.256Z,24.21
2017-09-28T17:21:37.875Z,24.32
2017-09-28T17:23:48.108Z,24.95
2017-09-28T17:26:01.038Z,25.05
2017-09-28T17:28:09.613Z,25.09
2017-09-28T17:30:29.772Z,25.00
2017-09-28T17:32:45.421Z,25.03
2017-09-28T17:34:57.497Z,25.05
2017-09-28T17:37:08.923Z,25.06
2017-09-28T17:39:17.931Z,25.22
2017-09-28T17:41:31.950Z,25.34
2017-09-28T17:43:45.195Z,25.20
2017-09-28T17:52:05.100Z,25.26
2017-09-28T17:56:35.924Z,25.35
2017-09-28T17:58:48.663Z,25.33
2017-09-28T18:00:59.983Z,25.33
2017-09-28T18:03:29.450Z,25.20
2017-09-28T18:05:56.298Z,25.31
2017-09-28T18:08:06.667Z,25.31
2017-09-28T18:10:37.031Z,25.33
2017-09-28T18:13:09.391Z,25.46
2017-09-28T18:15:36.711Z,25.43
2017-09-28T18:17:51.236Z,25.55
2017-09-28T18:20:03.293Z,25.52
2017-09-28T18:22:16.733Z,25.47
2017-09-28T18:24:35.393Z,25.43
2017-09-28T18:26:56.758Z,25.11
2017-09-28T18:29:08.501Z,25.04
2017-09-28T18:31:27.983Z,25.43
2017-09-28T18:33:44.664Z,25.29
2017-09-28T18:35:52.904Z,25.17
2017-09-28T18:40:34.067Z,25.35
2017-09-28T18:42:46.180Z,25.34
2017-09-28T18:44:57.028Z,25.40
2017-09-28T18:47:09.775Z,25.11
2017-09-28T18:49:23.101Z,25.01
2017-09-28T18:51:36.535Z,25.06
2017-09-28T18:53:44.802Z,25.18
2017-09-28T18:55:56.996Z,25.18
2017-09-28T18:58:14.400Z,25.11
2017-09-28T19:00:23.943Z,24.78
2017-09-28T19:02:36.004Z,25.14
2017-09-28T19:04:52.601Z,25.02
2017-09-28T19:07:09.392Z,25.15
2017-09-28T19:09:23.807Z,25.04
2017-09-28T19:11:44.914Z,25.24
2017-09-28T19:13:59.657Z,25.17
2017-09-28T19:16:14.902Z,25.32
2017-09-28T19:18:27.833Z,25.18
2017-09-28T19:20:39.166Z,25.20
2017-09-28T19:22:56.024Z,25.05
2017-09-28T19:30:21.574Z,25.24
2017-09-28T19:32:35.825Z,25.38
2017-09-28T19:35:05.819Z,25.26
2017-09-28T19:39:48.721Z,24.85
2017-09-28T19:42:04.290Z,24.80
2017-09-28T19:44:25.995Z,24.99
2017-09-28T19:49:22.169Z,25.04
2017-09-28T19:51:37.619Z,25.01
2017-09-28T19:53:53.041Z,24.71
2017-09-28T19:56:13.158Z,24.93
2017-09-28T19:58:31.195Z,25.06
2017-09-28T20:00:41.030Z,24.93
2017-09-28T20:02:52.770Z,25.21
2017-09-28T20:05:11.716Z,25.40
2017-09-28T20:07:32.664Z,25.44
2017-09-28T20:09:57.478Z,25.05
2017-09-28T20:12:06.549Z,25.02
2017-09-28T20:14:12.887Z,25.35
2017-09-28T20:16:23.119Z,24.94
2017-09-28T20:18:33.433Z,24.91
2017-09-28T20:20:43.051Z,24.89
2017-09-28T20:22:50.034Z,24.61
2017-09-28T20:25:01.682Z,24.44
2017-09-28T20:27:09.957Z,24.48
2017-09-28T20:29:18.854Z,24.39
2017-09-28T20:31:27.083Z,24.43
2017-09-28T20:33:38.041Z,24.14
2017-09-28T20:35:48.275Z,23.97
2017-09-28T20:37:55.963Z,24.26
2017-09-28T20:40:07.842Z,24.69
2017-09-28T20:42:14.985Z,24.90
2017-09-28T20:44:26.433Z,24.86
2017-09-28T20:46:39.784Z,24.60
2017-09-28T20:48:54.803Z,24.20
2017-09-28T20:51:09.302Z,24.09
2017-09-28T20:53:19.672Z,23.94
2017-09-28T20:55:34.417Z,24.18
2017-09-28T20:57:52.796Z,24.22
2017-09-28T21:00:20.451Z,24.03
2017-09-28T21:02:37.716Z,24.04
2017-09-28T21:04:46.354Z,24.07
2017-09-28T21:06:56.159Z,24.05
2017-09-28T21:09:17.441Z,24.15
2017-09-28T21:11:26.529Z,23.97
2017-09-28T21:16:05.845Z,24.27
2017-09-28T21:18:18.744Z,24.03
2017-09-28T21:20:58.074Z,23.96
2017-09-28T21:23:24.681Z,24.09
2017-09-28T21:25:52.342Z,24.21
2017-09-28T21:28:02.993Z,24.34
2017-09-28T21:30:20.758Z,24.18
2017-09-28T21:34:49.340Z,24.48
2017-09-28T21:41:02.362Z,24.08
2017-09-28T21:48:18.490Z,24.35
2017-09-28T21:50:30.947Z,23.68
2017-09-28T21:52:43.114Z,23.66
2017-09-28T21:54:54.244Z,23.65
2017-09-28T21:59:42.194Z,23.64
2017-09-28T22:01:59.004Z,23.54
2017-09-28T22:04:08.740Z,23.45
2017-09-28T22:06:23.618Z,23.68
2017-09-28T22:08:35.374Z,23.85
2017-09-28T22:10:47.764Z,24.44
2017-09-28T22:12:57.483Z,23.93
2017-09-28T22:15:15.932Z,24.00
2017-09-28T22:17:25.156Z,24.10
2017-09-28T22:19:48.934Z,23.77
2017-09-28T22:21:58.529Z,23.91
2017-09-28T22:24:08.826Z,24.07
2017-09-28T22:26:17.690Z,24.45
2017-09-28T22:28:29.004Z,24.73
2017-09-28T22:30:41.832Z,24.51
2017-09-28T22:32:51.885Z,24.10
2017-09-28T22:35:02.409Z,23.79
2017-09-28T22:37:23.500Z,24.01
2017-09-28T22:39:33.119Z,24.02
2017-09-28T22:43:07.739Z,24.14
2017-09-28T22:45:17.478Z,23.82
2017-09-28T22:47:28.482Z,23.65
2017-09-28T22:49:45.258Z,23.62
2017-09-28T22:51:57.394Z,23.54
2017-09-28T22:54:06.572Z,23.93
2017-09-28T22:56:13.361Z,23.79
2017-09-28T22:58:20.687Z,23.69
2017-09-28T23:00:30.945Z,23.76
2017-09-28T23:02:46.785Z,23.68
2017-09-28T23:04:54.557Z,23.64
2017-09-28T23:07:03.072Z,23.72
2017-09-28T23:09:09.369Z,23.64
2017-09-28T23:11:15.527Z,23.61
2017-09-28T23:13:26.416Z,23.74
2017-09-28T23:15:39.701Z,23.64
2017-09-28T23:17:46.733Z,23.62
2017-09-28T23:19:54.715Z,23.61
2017-09-28T23:22:14.337Z,23.53
2017-09-28T23:24:33.311Z,23.54
2017-09-28T23:28:57.124Z,23.67
2017-09-28T23:31:06.459Z,23.76
2017-09-28T23:33:14.192Z,23.83
2017-09-28T23:35:25.610Z,23.94
2017-09-28T23:37:39.017Z,23.99
2017-09-28T23:39:46.998Z,24.01
2017-09-28T23:41:56.206Z,23.95
2017-09-28T23:44:05.406Z,24.03
2017-09-28T23:46:14.999Z,23.86
2017-09-28T23:48:22.441Z,24.11
2017-09-28T23:50:30.508Z,24.08
2017-09-28T23:52:37.212Z,24.13
2017-09-28T23:54:45.188Z,24.01
2017-09-28T23:56:55.552Z,23.91
2017-09-28T23:59:03.795Z,23.93
